โซล, South Korea

09:10 AM KST วัน กันยายน 26, 2016 (GMT +0900)
Kimpo International | | Change Station

Elev 59 ft 37.56 °N, 126.79 °E | Updated 10 minutes ago

Clear
ท้องฟ้าแจ่มใส
70 ฟาเรนไฮน์
Feels Like 70 ฟาเรนไฮน์
N
2
ลม ความผันแปร ลม from ทางทิศตะวันตกเฉียงเหนือ

วันนี้
High -- | Low -- ฟาเรนไฮน์
--% Chance of Precip.
Yesterday
High -- | Low -- ฟาเรนไฮน์
Precip. -- นิ้ว
ความดัน 30.04 นิ้ว
ทัศนวิสัย 4.3 ไมล์
เมฆ
อุณหภูมิที่อากาศอาจจับตัวเป็นหยาดน้ำค้าง 61 ฟาเรนไฮน์
ความชื้น 73%
Rainfall 0.00 นิ้ว
Snow Depth Not available.
6:23 AM 6:23 PM
เดือนเสี้ยว, 23% visible
METAR RKSS 260000Z 31002KT 7000 NSC 21/16 Q1017 NOSIG
ความดัน 30.04 นิ้ว
ทัศนวิสัย 4.3 ไมล์
เมฆ
อุณหภูมิที่อากาศอาจจับตัวเป็นหยาดน้ำค้าง 61 ฟาเรนไฮน์
ความชื้น 73%
Rainfall 0.00 นิ้ว
Snow Depth Not available.
6:23 AM 6:23 PM
เดือนเสี้ยว, 23% visible
METAR RKSS 260000Z 31002KT 7000 NSC 21/16 Q1017 NOSIG

10-Day Weather Forecast

No radar image for this location.
×

Almanac

ดาราศาสตร์

Sep. 26, 2016 Rise Set
Actual Time
Civil Twilight
Nautical Twilight
Astronomical Twilight
Moon
Length Of Visible Light
ความยาวของวัน
Tomorrow will be .
, % of the Moon is Illuminated

Today's Extremes

Country Highs Country Lows

Community

WunderPhotos

Upload Photos

1,941,789 photos uploaded!

WunderBlog® & News

Nearby

Air Quality

  Air Quality AQ Index Pollutant
Not available.

Snow Depth

Station Depth Elevation

Earthquake Activity

City Distance Mag. Time & Date
Minimum magnitude displayed is 2.5.

Coastal Water Temperatures

สถานที่ อุณหภูมิ

Stations

Nearby Weather Stations

Station Location Temp ลมหนาว อุณหภูมิที่อากาศอาจจับตัวเป็นหยาดน้ำค้าง ความชื้น ลม Precip. Elev ปรับปรุงล่าสุด Type